sensor_id;sensor_type;location;lat;lon;timestamp;P1;P4;P2;P0;N10;N4;N25;N1;N05;TS
71550;SPS30;59367;48.414;9.872;2023-01-04T00:00:13;11.00947094;;10.54650116;;;;;;;
71550;SPS30;59367;48.414;9.872;2023-01-04T00:01:21;11.143363;;10.80260086;;;;;;;
71550;SPS30;59367;48.414;9.872;2023-01-04T00:02:29;10.80115032;;10.54471874;;;;;;;
71550;SPS30;59367;48.414;9.872;2023-01-04T00:03:36;10.20479202;;9.957271576;;;;;;;
71550;SPS30;59367;48.414;9.872;2023-01-04T00:04:43;11.19813824;;10.82987404;;;;;;;
71550;SPS30;59367;48.414;9.872;2023-01-04T00:05:51;10.83040714;;10.40193558;;;;;;;
71550;SPS30;59367;48.414;9.872;2023-01-04T00:07:00;10.11134815;;9.776488304;;;;;;;
71550;SPS30;59367;48.414;9.872;2023-01-04T00:08:07;10.60271168;;10.3283062;;;;;;;
71550;SPS30;59367;48.414;9.872;2023-01-04T00:09:14;10.29038525;;9.981863022;;;;;;;
71550;SPS30;59367;48.414;9.872;2023-01-04T00:10:21;11.04409027;;10.65882206;;;;;;;
71550;SPS30;59367;48.414;9.872;2023-01-04T00:11:28;11.0535183;;10.67774487;;;;;;;
71550;SPS30;59367;48.414;9.872;2023-01-04T00:12:37;11.18334579;;10.75404453;;;;;;;
71550;SPS30;59367;48.414;9.872;2023-01-04T00:13:44;9.664129257;;9.300240517;;;;;;;
71550;SPS30;59367;48.414;9.872;2023-01-04T00:14:52;10.34056187;;9.877307892;;;;;;;
71550;SPS30;59367;48.414;9.872;2023-01-04T00:16:02;9.22055912;;8.933121681;;;;;;;
71550;SPS30;59367;48.414;9.872;2023-01-04T00:17:11;9.83425045;;9.449682236;;;;;;;
71550;SPS30;59367;48.414;9.872;2023-01-04T00:18:18;10.84660721;;10.36860085;;;;;;;
71550;SPS30;59367;48.414;9.872;2023-01-04T00:19:26;10.1776104;;9.705868721;;;;;;;
71550;SPS30;59367;48.414;9.872;2023-01-04T00:20:33;10.24342632;;9.890328407;;;;;;;
71550;SPS30;59367;48.414;9.872;2023-01-04T00:21:40;9.275110245;;8.994259834;;;;;;;
71550;SPS30;59367;48.414;9.872;2023-01-04T00:22:47;9.402894974;;9.165050507;;;;;;;
71550;SPS30;59367;48.414;9.872;2023-01-04T00:23:55;9.292603493;;8.876592636;;;;;;;
71550;SPS30;59367;48.414;9.872;2023-01-04T00:25:03;8.682486534;;8.350803375;;;;;;;
71550;SPS30;59367;48.414;9.872;2023-01-04T00:26:12;9.357574463;;9.195360184;;;;;;;
71550;SPS30;59367;48.414;9.872;2023-01-04T00:27:21;9.19961834;;8.959324837;;;;;;;
71550;SPS30;59367;48.414;9.872;2023-01-04T00:28:28;7.938780308;;7.814286232;;;;;;;
71550;SPS30;59367;48.414;9.872;2023-01-04T00:29:35;9.165669441;;8.981923103;;;;;;;
71550;SPS30;59367;48.414;9.872;2023-01-04T00:30:42;9.053855896;;8.779769897;;;;;;;
71550;SPS30;59367;48.414;9.872;2023-01-04T00:31:50;8.606785774;;8.431978226;;;;;;;
71550;SPS30;59367;48.414;9.872;2023-01-04T00:32:57;9.245392799;;8.934820175;;;;;;;
71550;SPS30;59367;48.414;9.872;2023-01-04T00:34:04;8.881303787;;8.543945313;;;;;;;
71550;SPS30;59367;48.414;9.872;2023-01-04T00:35:13;8.679270744;;8.43441391;;;;;;;
71550;SPS30;59367;48.414;9.872;2023-01-04T00:36:20;8.273830414;;8.129097939;;;;;;;
71550;SPS30;59367;48.414;9.872;2023-01-04T00:37:27;9.664284706;;9.486195564;;;;;;;
71550;SPS30;59367;48.414;9.872;2023-01-04T00:38:35;8.900876999;;8.600736618;;;;;;;
71550;SPS30;59367;48.414;9.872;2023-01-04T00:39:43;8.882613182;;8.661176682;;;;;;;
71550;SPS30;59367;48.414;9.872;2023-01-04T00:40:51;9.260009766;;9.044589996;;;;;;;
71550;SPS30;59367;48.414;9.872;2023-01-04T00:41:58;10.06586456;;9.757991791;;;;;;;
71550;SPS30;59367;48.414;9.872;2023-01-04T00:43:05;9.084415436;;8.898394585;;;;;;;
71550;SPS30;59367;48.414;9.872;2023-01-04T00:44:12;9.300581932;;9.086038589;;;;;;;
71550;SPS30;59367;48.414;9.872;2023-01-04T00:45:20;8.930078506;;8.716096878;;;;;;;
71550;SPS30;59367;48.414;9.872;2023-01-04T00:46:27;8.946669579;;8.663490295;;;;;;;
71550;SPS30;59367;48.414;9.872;2023-01-04T00:47:35;8.666482925;;8.493177414;;;;;;;
71550;SPS30;59367;48.414;9.872;2023-01-04T00:48:43;9.235109329;;8.996994972;;;;;;;
71550;SPS30;59367;48.414;9.872;2023-01-04T00:49:50;9.234545708;;8.99169445;;;;;;;
71550;SPS30;59367;48.414;9.872;2023-01-04T00:50:57;9.553445816;;9.295098305;;;;;;;
71550;SPS30;59367;48.414;9.872;2023-01-04T00:52:04;9.54716301;;9.282644272;;;;;;;
71550;SPS30;59367;48.414;9.872;2023-01-04T00:53:12;9.821081161;;9.527233124;;;;;;;
71550;SPS30;59367;48.414;9.872;2023-01-04T00:54:20;9.147150993;;8.893997192;;;;;;;
71550;SPS30;59367;48.414;9.872;2023-01-04T00:55:28;9.422477722;;9.157221794;;;;;;;
71550;SPS30;59367;48.414;9.872;2023-01-04T00:56:35;9.073058128;;8.867632866;;;;;;;
71550;SPS30;59367;48.414;9.872;2023-01-04T00:57:43;9.520222664;;9.371878624;;;;;;;
71550;SPS30;59367;48.414;9.872;2023-01-04T00:58:50;8.546419144;;8.416501045;;;;;;;
71550;SPS30;59367;48.414;9.872;2023-01-04T01:00:00;9.342313766;;9.130379677;;;;;;;
71550;SPS30;59367;48.414;9.872;2023-01-04T01:01:08;8.719542503;;8.492929459;;;;;;;
71550;SPS30;59367;48.414;9.872;2023-01-04T01:02:15;9.474505424;;9.258149147;;;;;;;
71550;SPS30;59367;48.414;9.872;2023-01-04T01:03:22;9.668128967;;9.445223808;;;;;;;
71550;SPS30;59367;48.414;9.872;2023-01-04T01:04:29;8.251029968;;8.106099129;;;;;;;
71550;SPS30;59367;48.414;9.872;2023-01-04T01:05:37;8.851060867;;8.679236412;;;;;;;
71550;SPS30;59367;48.414;9.872;2023-01-04T01:06:44;10.46897125;;10.22003174;;;;;;;
71550;SPS30;59367;48.414;9.872;2023-01-04T01:07:51;8.993563652;;8.74066925;;;;;;;
71550;SPS30;59367;48.414;9.872;2023-01-04T01:08:59;8.482372284;;8.389201164;;;;;;;
71550;SPS30;59367;48.414;9.872;2023-01-04T01:10:07;8.283624649;;8.219816208;;;;;;;
71550;SPS30;59367;48.414;9.872;2023-01-04T01:11:15;9.509951591;;9.367383957;;;;;;;
71550;SPS30;59367;48.414;9.872;2023-01-04T01:12:23;8.998745918;;8.841189384;;;;;;;
71550;SPS30;59367;48.414;9.872;2023-01-04T01:13:30;8.304362297;;8.130610466;;;;;;;
71550;SPS30;59367;48.414;9.872;2023-01-04T01:14:38;9.200543404;;8.982616425;;;;;;;
71550;SPS30;59367;48.414;9.872;2023-01-04T01:15:45;8.806473732;;8.721755028;;;;;;;
71550;SPS30;59367;48.414;9.872;2023-01-04T01:16:52;8.935870171;;8.808002472;;;;;;;
71550;SPS30;59367;48.414;9.872;2023-01-04T01:18:00;8.844464302;;8.712058067;;;;;;;
71550;SPS30;59367;48.414;9.872;2023-01-04T01:19:07;9.074790955;;8.8919487;;;;;;;
71550;SPS30;59367;48.414;9.872;2023-01-04T01:20:14;9.926677704;;9.656756401;;;;;;;
71550;SPS30;59367;48.414;9.872;2023-01-04T01:21:22;9.969319344;;9.69033432;;;;;;;
71550;SPS30;59367;48.414;9.872;2023-01-04T01:22:30;9.117715836;;8.901902199;;;;;;;
71550;SPS30;59367;48.414;9.872;2023-01-04T01:23:38;9.028845787;;8.863324165;;;;;;;
71550;SPS30;59367;48.414;9.872;2023-01-04T01:24:46;8.167258263;;8.013315201;;;;;;;
71550;SPS30;59367;48.414;9.872;2023-01-04T01:25:53;9.164988518;;8.899989128;;;;;;;
71550;SPS30;59367;48.414;9.872;2023-01-04T01:27:02;9.409712791;;9.035856247;;;;;;;
71550;SPS30;59367;48.414;9.872;2023-01-04T01:28:09;9.1550951;;8.875704765;;;;;;;
71550;SPS30;59367;48.414;9.872;2023-01-04T01:29:16;9.965343475;;9.551519394;;;;;;;
71550;SPS30;59367;48.414;9.872;2023-01-04T01:30:23;9.259841919;;8.917702675;;;;;;;
71550;SPS30;59367;48.414;9.872;2023-01-04T01:31:31;9.847535133;;9.554454803;;;;;;;
71550;SPS30;59367;48.414;9.872;2023-01-04T01:32:38;8.48306179;;8.241951942;;;;;;;
71550;SPS30;59367;48.414;9.872;2023-01-04T01:33:45;7.935120583;;7.758088589;;;;;;;
71550;SPS30;59367;48.414;9.872;2023-01-04T01:34:54;8.647845268;;8.449662209;;;;;;;
71550;SPS30;59367;48.414;9.872;2023-01-04T01:36:02;9.192357063;;8.950547218;;;;;;;
71550;SPS30;59367;48.414;9.872;2023-01-04T01:37:10;8.267577171;;8.072008133;;;;;;;
71550;SPS30;59367;48.414;9.872;2023-01-04T01:38:17;9.481860161;;9.268675804;;;;;;;
71550;SPS30;59367;48.414;9.872;2023-01-04T01:39:25;9.16180706;;9.011255264;;;;;;;
71550;SPS30;59367;48.414;9.872;2023-01-04T01:40:32;7.998057365;;7.776146412;;;;;;;
71550;SPS30;59367;48.414;9.872;2023-01-04T01:41:42;8.537759781;;8.216555595;;;;;;;
71550;SPS30;59367;48.414;9.872;2023-01-04T01:42:51;10.62727261;;10.17993736;;;;;;;
71550;SPS30;59367;48.414;9.872;2023-01-04T01:43:59;10.12460613;;9.686351776;;;;;;;
71550;SPS30;59367;48.414;9.872;2023-01-04T01:45:08;10.32829285;;9.947386742;;;;;;;
71550;SPS30;59367;48.414;9.872;2023-01-04T01:46:32;9.358031273;;9.124190331;;;;;;;
71550;SPS30;59367;48.414;9.872;2023-01-04T01:47:43;10.61537361;;10.31940079;;;;;;;
71550;SPS30;59367;48.414;9.872;2023-01-04T01:48:53;10.30932903;;10.02673626;;;;;;;
71550;SPS30;59367;48.414;9.872;2023-01-04T01:50:05;10.33529282;;9.846504211;;;;;;;
71550;SPS30;59367;48.414;9.872;2023-01-04T01:51:26;9.235577583;;8.899173737;;;;;;;
71550;SPS30;59367;48.414;9.872;2023-01-04T01:52:35;9.908035278;;9.641424179;;;;;;;
71550;SPS30;59367;48.414;9.872;2023-01-04T01:53:44;8.781949043;;8.542425156;;;;;;;
71550;SPS30;59367;48.414;9.872;2023-01-04T01:54:57;9.757472038;;9.492479324;;;;;;;
71550;SPS30;59367;48.414;9.872;2023-01-04T01:56:07;10.62601757;;10.38234806;;;;;;;
71550;SPS30;59367;48.414;9.872;2023-01-04T01:57:20;10.22694302;;9.874661446;;;;;;;
71550;SPS30;59367;48.414;9.872;2023-01-04T01:58:32;9.406116486;;9.159480095;;;;;;;
71550;SPS30;59367;48.414;9.872;2023-01-04T01:59:43;9.376339912;;9.131403923;;;;;;;
71550;SPS30;59367;48.414;9.872;2023-01-04T02:00:54;9.485404968;;9.143873215;;;;;;;
71550;SPS30;59367;48.414;9.872;2023-01-04T02:02:01;9.825740814;;9.536298752;;;;;;;
71550;SPS30;59367;48.414;9.872;2023-01-04T02:03:12;8.959433556;;8.684566498;;;;;;;
71550;SPS30;59367;48.414;9.872;2023-01-04T02:04:21;9.195466995;;8.835406303;;;;;;;
71550;SPS30;59367;48.414;9.872;2023-01-04T02:05:29;8.706914902;;8.466300964;;;;;;;
71550;SPS30;59367;48.414;9.872;2023-01-04T02:06:39;8.503405571;;8.331414223;;;;;;;
71550;SPS30;59367;48.414;9.872;2023-01-04T02:07:50;8.013288498;;7.915154934;;;;;;;
71550;SPS30;59367;48.414;9.872;2023-01-04T02:08:57;9.100511551;;8.966821671;;;;;;;
71550;SPS30;59367;48.414;9.872;2023-01-04T02:10:06;9.735033989;;9.488241196;;;;;;;
71550;SPS30;59367;48.414;9.872;2023-01-04T02:11:14;10.00759506;;9.567986488;;;;;;;
71550;SPS30;59367;48.414;9.872;2023-01-04T02:12:22;8.909127235;;8.619698524;;;;;;;
71550;SPS30;59367;48.414;9.872;2023-01-04T02:13:29;9.185212135;;9.001997948;;;;;;;
71550;SPS30;59367;48.414;9.872;2023-01-04T02:14:40;9.567067146;;9.311437607;;;;;;;
71550;SPS30;59367;48.414;9.872;2023-01-04T02:15:56;10.52124691;;10.05050182;;;;;;;
71550;SPS30;59367;48.414;9.872;2023-01-04T02:17:13;11.36173439;;10.88553619;;;;;;;
71550;SPS30;59367;48.414;9.872;2023-01-04T02:18:28;9.994907379;;9.775320053;;;;;;;
71550;SPS30;59367;48.414;9.872;2023-01-04T02:19:52;10.3757925;;10.18958282;;;;;;;
71550;SPS30;59367;48.414;9.872;2023-01-04T02:21:10;9.525072098;;9.256443977;;;;;;;
71550;SPS30;59367;48.414;9.872;2023-01-04T02:22:31;10.78340912;;10.41189575;;;;;;;
71550;SPS30;59367;48.414;9.872;2023-01-04T02:23:59;9.553883553;;9.347079277;;;;;;;
71550;SPS30;59367;48.414;9.872;2023-01-04T02:25:23;9.259001732;;8.994758606;;;;;;;
71550;SPS30;59367;48.414;9.872;2023-01-04T02:26:59;10.55121422;;9.97641468;;;;;;;
71550;SPS30;59367;48.414;9.872;2023-01-04T02:28:26;9.9447155;;9.611515999;;;;;;;
71550;SPS30;59367;48.414;9.872;2023-01-04T02:29:59;9.548611641;;9.245379448;;;;;;;
71550;SPS30;59367;48.414;9.872;2023-01-04T02:31:38;9.213345528;;9.024365425;;;;;;;
71550;SPS30;59367;48.414;9.872;2023-01-04T02:32:49;9.128249168;;8.99019146;;;;;;;
71550;SPS30;59367;48.414;9.872;2023-01-04T02:34:07;8.822664261;;8.648523331;;;;;;;
71550;SPS30;59367;48.414;9.872;2023-01-04T02:35:23;8.087451935;;7.984446049;;;;;;;
71550;SPS30;59367;48.414;9.872;2023-01-04T02:36:36;9.370182037;;9.230665207;;;;;;;
71550;SPS30;59367;48.414;9.872;2023-01-04T02:37:53;9.432890892;;9.243469238;;;;;;;
71550;SPS30;59367;48.414;9.872;2023-01-04T02:39:09;9.267069817;;9.076524734;;;;;;;
71550;SPS30;59367;48.414;9.872;2023-01-04T02:40:27;9.357496262;;9.160534859;;;;;;;
71550;SPS30;59367;48.414;9.872;2023-01-04T02:41:45;10.09536171;;9.935077667;;;;;;;
71550;SPS30;59367;48.414;9.872;2023-01-04T02:42:58;8.732067108;;8.540344238;;;;;;;
71550;SPS30;59367;48.414;9.872;2023-01-04T02:44:13;8.450464249;;8.231235504;;;;;;;
71550;SPS30;59367;48.414;9.872;2023-01-04T02:45:23;8.35539341;;8.237271309;;;;;;;
71550;SPS30;59367;48.414;9.872;2023-01-04T02:46:39;8.012121201;;7.932079792;;;;;;;
71550;SPS30;59367;48.414;9.872;2023-01-04T02:47:50;8.262228012;;8.12264061;;;;;;;
71550;SPS30;59367;48.414;9.872;2023-01-04T02:49:00;8.195869446;;8.000709534;;;;;;;
71550;SPS30;59367;48.414;9.872;2023-01-04T02:50:15;7.745503426;;7.593751431;;;;;;;
71550;SPS30;59367;48.414;9.872;2023-01-04T02:51:31;8.347258568;;8.13060379;;;;;;;
71550;SPS30;59367;48.414;9.872;2023-01-04T02:52:39;8.126512527;;7.939112663;;;;;;;
71550;SPS30;59367;48.414;9.872;2023-01-04T02:53:46;7.639408112;;7.459797859;;;;;;;
71550;SPS30;59367;48.414;9.872;2023-01-04T02:54:54;7.666228771;;7.46450901;;;;;;;
71550;SPS30;59367;48.414;9.872;2023-01-04T02:56:07;7.645832062;;7.40023613;;;;;;;
71550;SPS30;59367;48.414;9.872;2023-01-04T02:57:28;8.818534851;;8.594976425;;;;;;;
71550;SPS30;59367;48.414;9.872;2023-01-04T02:58:46;8.622862816;;8.304821014;;;;;;;
71550;SPS30;59367;48.414;9.872;2023-01-04T03:00:18;8.379436493;;8.205842018;;;;;;;
71550;SPS30;59367;48.414;9.872;2023-01-04T03:01:38;8.450164795;;8.202149391;;;;;;;
71550;SPS30;59367;48.414;9.872;2023-01-04T03:03:00;7.966783047;;7.66741991;;;;;;;
71550;SPS30;59367;48.414;9.872;2023-01-04T03:04:27;8.452723503;;8.122323036;;;;;;;
71550;SPS30;59367;48.414;9.872;2023-01-04T03:05:45;8.264511108;;8.083049774;;;;;;;
71550;SPS30;59367;48.414;9.872;2023-01-04T03:07:01;8.929659843;;8.53230381;;;;;;;
71550;SPS30;59367;48.414;9.872;2023-01-04T03:08:13;9.290102005;;8.860579491;;;;;;;
71550;SPS30;59367;48.414;9.872;2023-01-04T03:09:30;9.981834412;;9.480949402;;;;;;;
71550;SPS30;59367;48.414;9.872;2023-01-04T03:10:43;9.555544853;;9.116291046;;;;;;;
71550;SPS30;59367;48.414;9.872;2023-01-04T03:11:57;9.577194214;;9.232593536;;;;;;;
71550;SPS30;59367;48.414;9.872;2023-01-04T03:13:12;9.810257912;;9.437940598;;;;;;;
71550;SPS30;59367;48.414;9.872;2023-01-04T03:14:25;9.716780663;;9.250987053;;;;;;;
71550;SPS30;59367;48.414;9.872;2023-01-04T03:15:36;9.268876076;;9.01841259;;;;;;;
71550;SPS30;59367;48.414;9.872;2023-01-04T03:16:47;10.17340374;;9.695214272;;;;;;;
71550;SPS30;59367;48.414;9.872;2023-01-04T03:17:58;9.798291206;;9.399763107;;;;;;;
71550;SPS30;59367;48.414;9.872;2023-01-04T03:19:10;9.76748085;;9.4084692;;;;;;;
71550;SPS30;59367;48.414;9.872;2023-01-04T03:20:22;9.805270195;;9.504983902;;;;;;;
71550;SPS30;59367;48.414;9.872;2023-01-04T03:21:32;9.748313904;;9.348190308;;;;;;;
71550;SPS30;59367;48.414;9.872;2023-01-04T03:22:42;10.39459896;;9.971975327;;;;;;;
71550;SPS30;59367;48.414;9.872;2023-01-04T03:23:54;11.06424236;;10.58612728;;;;;;;
71550;SPS30;59367;48.414;9.872;2023-01-04T03:25:05;10.16642475;;9.839547157;;;;;;;
71550;SPS30;59367;48.414;9.872;2023-01-04T03:26:16;10.74303722;;10.09817696;;;;;;;
71550;SPS30;59367;48.414;9.872;2023-01-04T03:27:25;10.12464714;;9.655927658;;;;;;;
71550;SPS30;59367;48.414;9.872;2023-01-04T03:28:34;9.813973427;;9.397507668;;;;;;;
71550;SPS30;59367;48.414;9.872;2023-01-04T03:29:45;8.514452934;;8.219320297;;;;;;;
71550;SPS30;59367;48.414;9.872;2023-01-04T03:30:58;9.987332344;;9.401815414;;;;;;;
71550;SPS30;59367;48.414;9.872;2023-01-04T03:32:11;9.976997375;;9.51770401;;;;;;;
71550;SPS30;59367;48.414;9.872;2023-01-04T03:33:22;9.686813354;;9.181483269;;;;;;;
71550;SPS30;59367;48.414;9.872;2023-01-04T03:34:30;10.11746025;;9.704821587;;;;;;;
71550;SPS30;59367;48.414;9.872;2023-01-04T03:35:40;9.187444687;;8.92509079;;;;;;;
71550;SPS30;59367;48.414;9.872;2023-01-04T03:36:53;9.482093811;;9.187057495;;;;;;;
71550;SPS30;59367;48.414;9.872;2023-01-04T03:38:09;10.01601791;;9.644387245;;;;;;;
71550;SPS30;59367;48.414;9.872;2023-01-04T03:39:25;10.26699543;;9.84366703;;;;;;;
71550;SPS30;59367;48.414;9.872;2023-01-04T03:40:42;11.17373848;;10.62024689;;;;;;;
71550;SPS30;59367;48.414;9.872;2023-01-04T03:41:58;10.47062683;;9.970212936;;;;;;;
71550;SPS30;59367;48.414;9.872;2023-01-04T03:43:13;9.1802845;;8.752063751;;;;;;;
71550;SPS30;59367;48.414;9.872;2023-01-04T03:44:23;10.04436207;;9.651656151;;;;;;;
71550;SPS30;59367;48.414;9.872;2023-01-04T03:45:41;10.09066772;;9.760579109;;;;;;;
71550;SPS30;59367;48.414;9.872;2023-01-04T03:46:51;9.784976006;;9.254315376;;;;;;;
71550;SPS30;59367;48.414;9.872;2023-01-04T03:48:09;10.27012825;;9.717293739;;;;;;;
71550;SPS30;59367;48.414;9.872;2023-01-04T03:49:21;10.96011925;;10.37591743;;;;;;;
71550;SPS30;59367;48.414;9.872;2023-01-04T03:50:34;9.925230026;;9.414767265;;;;;;;
71550;SPS30;59367;48.414;9.872;2023-01-04T03:51:46;9.49276638;;9.042895317;;;;;;;
71550;SPS30;59367;48.414;9.872;2023-01-04T03:52:58;11.26860428;;10.76978493;;;;;;;
71550;SPS30;59367;48.414;9.872;2023-01-04T03:54:07;9.39230442;;9.066868782;;;;;;;
71550;SPS30;59367;48.414;9.872;2023-01-04T03:55:18;9.084591866;;8.825078964;;;;;;;
71550;SPS30;59367;48.414;9.872;2023-01-04T03:56:26;9.411284447;;8.827877998;;;;;;;
71550;SPS30;59367;48.414;9.872;2023-01-04T03:57:35;9.832767487;;9.331062317;;;;;;;
71550;SPS30;59367;48.414;9.872;2023-01-04T03:58:43;9.619125366;;9.125762939;;;;;;;
71550;SPS30;59367;48.414;9.872;2023-01-04T03:59:52;9.617976189;;9.125174522;;;;;;;
71550;SPS30;59367;48.414;9.872;2023-01-04T04:01:03;9.154393196;;8.666854858;;;;;;;
71550;SPS30;59367;48.414;9.872;2023-01-04T04:02:12;10.2145853;;9.619356155;;;;;;;
71550;SPS30;59367;48.414;9.872;2023-01-04T04:03:24;9.906622887;;9.367426872;;;;;;;
71550;SPS30;59367;48.414;9.872;2023-01-04T04:04:32;8.984610558;;8.63150692;;;;;;;
71550;SPS30;59367;48.414;9.872;2023-01-04T04:05:40;8.628890991;;8.273276329;;;;;;;
71550;SPS30;59367;48.414;9.872;2023-01-04T04:06:48;7.849087238;;7.497691631;;;;;;;
71550;SPS30;59367;48.414;9.872;2023-01-04T04:07:55;8.393461227;;8.071364403;;;;;;;
71550;SPS30;59367;48.414;9.872;2023-01-04T04:09:03;8.030812263;;7.680967331;;;;;;;
71550;SPS30;59367;48.414;9.872;2023-01-04T04:10:10;7.742859364;;7.357640266;;;;;;;
71550;SPS30;59367;48.414;9.872;2023-01-04T04:11:17;8.40915966;;7.945996761;;;;;;;
71550;SPS30;59367;48.414;9.872;2023-01-04T04:12:24;7.401376247;;6.895171165;;;;;;;
71550;SPS30;59367;48.414;9.872;2023-01-04T04:13:32;8.323700905;;7.739087582;;;;;;;
71550;SPS30;59367;48.414;9.872;2023-01-04T04:14:39;7.729179382;;7.343672752;;;;;;;
71550;SPS30;59367;48.414;9.872;2023-01-04T04:15:46;7.09830904;;6.855015755;;;;;;;
71550;SPS30;59367;48.414;9.872;2023-01-04T04:16:54;6.692474365;;6.441579819;;;;;;;
71550;SPS30;59367;48.414;9.872;2023-01-04T04:18:01;7.584129333;;7.225140572;;;;;;;
71550;SPS30;59367;48.414;9.872;2023-01-04T04:19:09;7.339790344;;7.087278366;;;;;;;
71550;SPS30;59367;48.414;9.872;2023-01-04T04:20:16;6.887067318;;6.598011971;;;;;;;
71550;SPS30;59367;48.414;9.872;2023-01-04T04:21:23;7.878778934;;7.4977355;;;;;;;
71550;SPS30;59367;48.414;9.872;2023-01-04T04:22:31;7.050272942;;6.717850208;;;;;;;
71550;SPS30;59367;48.414;9.872;2023-01-04T04:23:38;7.220864773;;6.852321148;;;;;;;
71550;SPS30;59367;48.414;9.872;2023-01-04T04:24:45;6.295646667;;5.988730907;;;;;;;
71550;SPS30;59367;48.414;9.872;2023-01-04T04:25:53;6.756977558;;6.447785854;;;;;;;
71550;SPS30;59367;48.414;9.872;2023-01-04T04:27:00;5.942698956;;5.720473289;;;;;;;
71550;SPS30;59367;48.414;9.872;2023-01-04T04:28:07;5.681307793;;5.49438715;;;;;;;
71550;SPS30;59367;48.414;9.872;2023-01-04T04:29:14;6.350970268;;6.130777836;;;;;;;
71550;SPS30;59367;48.414;9.872;2023-01-04T04:30:21;5.846996307;;5.616513252;;;;;;;
71550;SPS30;59367;48.414;9.872;2023-01-04T04:31:29;6.532455921;;6.243527889;;;;;;;
71550;SPS30;59367;48.414;9.872;2023-01-04T04:32:36;6.05335474;;5.749019623;;;;;;;
71550;SPS30;59367;48.414;9.872;2023-01-04T04:33:43;6.268455029;;5.875776291;;;;;;;
71550;SPS30;59367;48.414;9.872;2023-01-04T04:34:50;5.667768002;;5.355128765;;;;;;;
71550;SPS30;59367;48.414;9.872;2023-01-04T04:35:57;6.34525013;;6.037092686;;;;;;;
71550;SPS30;59367;48.414;9.872;2023-01-04T04:37:05;5.713125706;;5.480634689;;;;;;;
71550;SPS30;59367;48.414;9.872;2023-01-04T04:38:12;6.069729805;;5.792295933;;;;;;;
71550;SPS30;59367;48.414;9.872;2023-01-04T04:39:19;5.927667141;;5.712007999;;;;;;;
71550;SPS30;59367;48.414;9.872;2023-01-04T04:40:26;6.822053432;;6.569225788;;;;;;;
71550;SPS30;59367;48.414;9.872;2023-01-04T04:41:33;6.472181797;;6.18788147;;;;;;;
71550;SPS30;59367;48.414;9.872;2023-01-04T04:42:41;6.796934605;;6.459430218;;;;;;;
71550;SPS30;59367;48.414;9.872;2023-01-04T04:43:48;6.520363808;;6.230016232;;;;;;;
71550;SPS30;59367;48.414;9.872;2023-01-04T04:44:55;6.190897942;;5.903774261;;;;;;;
71550;SPS30;59367;48.414;9.872;2023-01-04T04:46:02;6.366407394;;6.05257082;;;;;;;
71550;SPS30;59367;48.414;9.872;2023-01-04T04:47:10;6.235435486;;6.022510529;;;;;;;
71550;SPS30;59367;48.414;9.872;2023-01-04T04:48:17;6.234051228;;6.001362324;;;;;;;
71550;SPS30;59367;48.414;9.872;2023-01-04T04:49:24;5.485819817;;5.262375355;;;;;;;
71550;SPS30;59367;48.414;9.872;2023-01-04T04:50:31;5.786299229;;5.648777485;;;;;;;
71550;SPS30;59367;48.414;9.872;2023-01-04T04:51:39;6.1212883;;5.914391994;;;;;;;
71550;SPS30;59367;48.414;9.872;2023-01-04T04:52:47;5.717298985;;5.481617451;;;;;;;
71550;SPS30;59367;48.414;9.872;2023-01-04T04:53:54;5.709458351;;5.458045006;;;;;;;
71550;SPS30;59367;48.414;9.872;2023-01-04T04:55:01;6.115803242;;5.902432919;;;;;;;
71550;SPS30;59367;48.414;9.872;2023-01-04T04:56:09;5.44162178;;5.269067764;;;;;;;
71550;SPS30;59367;48.414;9.872;2023-01-04T04:57:16;6.393496037;;6.142701626;;;;;;;
71550;SPS30;59367;48.414;9.872;2023-01-04T04:58:23;6.083010674;;5.805395126;;;;;;;
71550;SPS30;59367;48.414;9.872;2023-01-04T04:59:31;6.439427853;;6.072770119;;;;;;;
71550;SPS30;59367;48.414;9.872;2023-01-04T05:00:38;5.573935509;;5.272829056;;;;;;;
71550;SPS30;59367;48.414;9.872;2023-01-04T05:01:46;6.53423357;;6.08731699;;;;;;;
71550;SPS30;59367;48.414;9.872;2023-01-04T05:02:53;6.399194241;;6.036317348;;;;;;;
71550;SPS30;59367;48.414;9.872;2023-01-04T05:04:04;5.601572514;;5.368681908;;;;;;;
71550;SPS30;59367;48.414;9.872;2023-01-04T05:05:11;6.013110161;;5.795773029;;;;;;;
71550;SPS30;59367;48.414;9.872;2023-01-04T05:06:18;6.150469303;;5.933986187;;;;;;;
71550;SPS30;59367;48.414;9.872;2023-01-04T05:07:26;6.568013191;;6.399015427;;;;;;;
71550;SPS30;59367;48.414;9.872;2023-01-04T05:08:33;6.490391731;;6.337755203;;;;;;;
71550;SPS30;59367;48.414;9.872;2023-01-04T05:09:41;6.334382057;;6.145491123;;;;;;;
71550;SPS30;59367;48.414;9.872;2023-01-04T05:10:48;6.868190765;;6.658731461;;;;;;;
71550;SPS30;59367;48.414;9.872;2023-01-04T05:11:55;6.639270306;;6.3407197;;;;;;;
71550;SPS30;59367;48.414;9.872;2023-01-04T05:13:03;7.211624622;;6.873848915;;;;;;;
71550;SPS30;59367;48.414;9.872;2023-01-04T05:14:10;7.482429028;;7.156831741;;;;;;;
71550;SPS30;59367;48.414;9.872;2023-01-04T05:15:17;7.283773422;;6.914675236;;;;;;;
71550;SPS30;59367;48.414;9.872;2023-01-04T05:16:24;8.087891579;;7.667684078;;;;;;;
71550;SPS30;59367;48.414;9.872;2023-01-04T05:17:32;6.859985828;;6.51301384;;;;;;;
71550;SPS30;59367;48.414;9.872;2023-01-04T05:18:39;7.543046951;;7.233551025;;;;;;;
71550;SPS30;59367;48.414;9.872;2023-01-04T05:19:46;7.404353619;;7.114931107;;;;;;;
71550;SPS30;59367;48.414;9.872;2023-01-04T05:20:53;6.901630402;;6.619665146;;;;;;;
71550;SPS30;59367;48.414;9.872;2023-01-04T05:22:00;7.23664999;;6.918311119;;;;;;;
71550;SPS30;59367;48.414;9.872;2023-01-04T05:23:09;8.115755081;;7.650197983;;;;;;;
71550;SPS30;59367;48.414;9.872;2023-01-04T05:24:18;8.459633827;;7.873382568;;;;;;;
71550;SPS30;59367;48.414;9.872;2023-01-04T05:25:25;7.694885731;;7.338549614;;;;;;;
71550;SPS30;59367;48.414;9.872;2023-01-04T05:26:32;8.002752304;;7.687768459;;;;;;;
71550;SPS30;59367;48.414;9.872;2023-01-04T05:27:39;8.139739037;;7.803850174;;;;;;;
71550;SPS30;59367;48.414;9.872;2023-01-04T05:28:47;7.76936245;;7.49116993;;;;;;;
71550;SPS30;59367;48.414;9.872;2023-01-04T05:29:54;9.00398922;;8.780686378;;;;;;;
71550;SPS30;59367;48.414;9.872;2023-01-04T05:31:01;7.845849514;;7.485607624;;;;;;;
71550;SPS30;59367;48.414;9.872;2023-01-04T05:32:09;8.261341095;;7.668779373;;;;;;;
71550;SPS30;59367;48.414;9.872;2023-01-04T05:33:16;8.262932777;;7.682701111;;;;;;;
71550;SPS30;59367;48.414;9.872;2023-01-04T05:34:25;9.245710373;;8.600895882;;;;;;;
71550;SPS30;59367;48.414;9.872;2023-01-04T05:35:32;8.050219536;;7.612019539;;;;;;;